Terminal Aerodrome Forecast
Issued by NWS Spokane, WA

Home | Current Version | Previous Version | Text Only | Print | Product List | Glossary On
Versions: 1 2 3 4 5 6 7 8 9 10 11 12 13 14 15 16 17 18 19 20 21 22 23 24 25 26 27 28 29 30 31 32 33 34 35 36 37 38 39 40 41
000
FTUS46 KOTX 290921 AAA
TAFLWS
TAF AMD
KLWS 290921Z 2909/3006 10007KT 2SM FU HZ SCT080 BKN120 OVC150
     FM291500 09012G20KT 5SM FU HZ SCT120 OVC200
     FM291700 33017G28KT P6SM SCT080 BKN120 BKN150
     FM292200 29019G25KT P6SM VCSH SCT050 BKN100 BKN150
     FM300300 31009KT P6SM SCT070 BKN120 BKN200=

USA.gov is the U.S. government's official web portal to all federal, state and local government web resources and services.